Terminal Aerodrome Forecast
Issued by NWS Shreveport, LA

Home | Current Version | Previous Version | Text Only | Print | Product List | Glossary On
Versions: 1 2 3 4 5 6 7 8 9 10 11 12 13 14 15 16 17 18 19 20 21 22 23 24 25
000
FTUS44 KSHV 281248 AAB
TAFSHV
TAF AMD
KSHV 281248Z 2813/2912 00000KT P6SM FEW050 FEW080 BKN100
     FM281700 15005KT P6SM VCSH SCT025 BKN250
     FM281900 15006KT P6SM VCTS BKN035CB
     FM290100 15003KT P6SM SCT050 BKN100=

USA.gov is the U.S. government's official web portal to all federal, state and local government web resources and services.